createdAt,value
2023-02-11T00:00:03.645Z,102646.66
2023-02-11T00:02:31.876Z,102642.91
2023-02-11T00:04:58.816Z,102651.88
2023-02-11T00:07:25.580Z,102646.03
2023-02-11T00:09:52.408Z,102640.75
2023-02-11T00:12:20.546Z,102647.25
2023-02-11T00:14:47.458Z,102631.47
2023-02-11T00:17:14.534Z,102655.06
2023-02-11T00:19:41.499Z,102640.03
2023-02-11T00:22:08.343Z,102651.44
2023-02-11T00:24:36.113Z,102644.09
2023-02-11T00:27:02.792Z,102640.72
2023-02-11T00:29:30.978Z,102648.41
2023-02-11T00:31:57.720Z,102638.19
2023-02-11T00:34:25.081Z,102637.84
2023-02-11T00:36:51.740Z,102627.66
2023-02-11T00:39:18.389Z,102651.13
2023-02-11T00:41:45.064Z,102652.50
2023-02-11T00:44:11.784Z,102635.00
2023-02-11T00:46:39.889Z,102649.16
2023-02-11T00:49:06.789Z,102647.44
2023-02-11T00:51:33.473Z,102625.78
2023-02-11T00:54:00.242Z,102643.69
2023-02-11T00:56:27.049Z,102650.19
2023-02-11T00:58:53.847Z,102658.50
2023-02-11T01:01:20.851Z,102645.13
2023-02-11T01:03:49.103Z,102638.59
2023-02-11T01:06:16.465Z,102630.41
2023-02-11T01:08:43.688Z,102637.19
2023-02-11T01:11:14.740Z,102621.84
2023-02-11T01:13:42.235Z,102610.63
2023-02-11T01:16:10.843Z,102611.41
2023-02-11T01:18:38.561Z,102604.66
2023-02-11T01:21:06.742Z,102615.88
2023-02-11T01:23:33.648Z,102608.34
2023-02-11T01:26:00.328Z,102590.47
2023-02-11T01:28:28.795Z,102606.16
2023-02-11T01:30:56.118Z,102606.03
2023-02-11T01:33:23.283Z,102592.16
2023-02-11T01:35:50.638Z,102605.56
2023-02-11T01:38:21.185Z,102595.94
2023-02-11T01:40:49.737Z,102576.91
2023-02-11T01:43:16.712Z,102569.72
2023-02-11T01:46:12.608Z,102578.00
2023-02-11T01:48:43.216Z,102568.25
2023-02-11T01:51:16.546Z,102553.31
2023-02-11T01:53:46.499Z,102567.50
2023-02-11T01:56:13.158Z,102561.88
2023-02-11T01:58:42.747Z,102553.47
2023-02-11T02:01:11.118Z,102556.72
2023-02-11T02:03:42.381Z,102547.34
2023-02-11T02:06:16.665Z,102541.97
2023-02-11T02:08:51.162Z,102542.34
2023-02-11T02:11:18.190Z,102543.09
2023-02-11T02:13:45.226Z,102547.66
2023-02-11T02:16:13.498Z,102530.25
2023-02-11T02:18:48.290Z,102537.38
2023-02-11T02:22:14.124Z,102520.25
2023-02-11T02:24:59.226Z,102531.38
2023-02-11T02:27:55.329Z,102530.25
2023-02-11T02:31:15.618Z,102511.31
2023-02-11T02:33:51.262Z,102495.34
2023-02-11T02:36:24.080Z,102511.97
2023-02-11T02:38:55.597Z,102500.59
2023-02-11T02:41:27.181Z,102516.03
2023-02-11T02:43:54.485Z,102512.41
2023-02-11T02:46:25.428Z,102508.34
2023-02-11T02:48:54.990Z,102480.19
2023-02-11T02:51:34.174Z,102491.69
2023-02-11T02:54:17.442Z,102492.25
2023-02-11T02:56:48.525Z,102496.78
2023-02-11T02:59:27.367Z,102489.28
2023-02-11T03:02:05.343Z,102489.16
2023-02-11T03:04:38.161Z,102484.88
2023-02-11T03:07:14.256Z,102487.31
2023-02-11T03:09:45.934Z,102469.78
2023-02-11T03:12:14.590Z,102471.50
2023-02-11T03:14:41.623Z,102481.13
2023-02-11T03:17:10.045Z,102484.88
2023-02-11T03:19:41.257Z,102476.19
2023-02-11T03:22:13.178Z,102451.22
2023-02-11T03:24:42.020Z,102460.31
2023-02-11T03:27:15.927Z,102464.13
2023-02-11T03:29:49.665Z,102453.88
2023-02-11T03:32:23.412Z,102448.34
2023-02-11T03:34:56.409Z,102462.91
2023-02-11T03:37:28.926Z,102459.84
2023-02-11T03:40:00.312Z,102445.34
2023-02-11T03:42:32.055Z,102443.72
2023-02-11T03:45:03.680Z,102444.94
2023-02-11T03:47:33.909Z,102457.25
2023-02-11T03:50:05.036Z,102441.44
2023-02-11T03:52:34.159Z,102439.25
2023-02-11T03:55:03.203Z,102443.97
2023-02-11T03:57:30.075Z,102441.50
2023-02-11T03:59:58.393Z,102448.88
2023-02-11T04:02:29.301Z,102435.72
2023-02-11T04:04:56.497Z,102444.19
2023-02-11T04:07:24.920Z,102438.88
2023-02-11T04:09:52.329Z,102433.06
2023-02-11T04:12:19.205Z,102433.72
2023-02-11T04:14:46.015Z,102425.88
2023-02-11T04:17:13.269Z,102411.56
2023-02-11T04:19:39.984Z,102422.16
2023-02-11T04:22:07.423Z,102431.97
2023-02-11T04:24:35.555Z,102431.00
2023-02-11T04:27:02.490Z,102435.03
2023-02-11T04:29:29.138Z,102417.09
2023-02-11T04:31:55.918Z,102427.59
2023-02-11T04:34:22.777Z,102408.75
2023-02-11T04:36:49.425Z,102408.59
2023-02-11T04:39:16.171Z,102406.88
2023-02-11T04:41:44.374Z,102414.91
2023-02-11T04:44:11.155Z,102403.66
2023-02-11T04:46:37.843Z,102419.63
2023-02-11T04:49:04.498Z,102421.72
2023-02-11T04:51:31.187Z,102417.72
2023-02-11T04:53:57.875Z,102425.00
2023-02-11T04:56:24.545Z,102432.53
2023-02-11T04:58:52.605Z,102437.69
2023-02-11T05:01:19.380Z,102426.69
2023-02-11T05:03:46.167Z,102440.56
2023-02-11T05:06:13.249Z,102448.72
2023-02-11T05:08:40.009Z,102443.50
2023-02-11T05:11:08.015Z,102429.41
2023-02-11T05:13:34.833Z,102427.78
2023-02-11T05:16:03.100Z,102428.75
2023-02-11T05:18:29.766Z,102433.97
2023-02-11T05:20:56.659Z,102435.31
2023-02-11T05:23:23.471Z,102428.56
2023-02-11T05:25:50.480Z,102444.88
2023-02-11T05:28:17.347Z,102442.09
2023-02-11T05:30:44.118Z,102450.88
2023-02-11T05:33:12.271Z,102433.63
2023-02-11T05:35:38.975Z,102441.44
2023-02-11T05:38:05.640Z,102427.56
2023-02-11T05:40:32.409Z,102432.97
2023-02-11T05:42:59.139Z,102422.00
2023-02-11T05:45:25.866Z,102420.75
2023-02-11T05:47:52.525Z,102414.53
2023-02-11T05:50:20.968Z,102415.69
2023-02-11T05:52:47.666Z,102406.50
2023-02-11T05:55:14.615Z,102413.41
2023-02-11T05:57:41.338Z,102411.09
2023-02-11T06:00:09.384Z,102415.09
2023-02-11T06:02:36.193Z,102398.28
2023-02-11T06:05:03.173Z,102399.59
2023-02-11T06:07:31.217Z,102391.25
2023-02-11T06:09:57.967Z,102384.50
2023-02-11T06:12:24.721Z,102385.31
2023-02-11T06:14:51.398Z,102376.13
2023-02-11T06:17:18.162Z,102380.00
2023-02-11T06:19:44.858Z,102380.38
2023-02-11T06:22:11.617Z,102391.09
2023-02-11T06:24:58.957Z,102407.03
2023-02-11T06:27:26.333Z,102394.06
2023-02-11T06:29:52.989Z,102394.66
2023-02-11T06:32:39.498Z,102385.13
2023-02-11T06:35:09.986Z,102399.97
2023-02-11T06:37:38.133Z,102386.94
2023-02-11T06:40:07.357Z,102408.59
2023-02-11T06:42:34.102Z,102404.47
2023-02-11T06:45:00.740Z,102412.19
2023-02-11T06:47:27.388Z,102418.91
2023-02-11T06:49:54.057Z,102421.91
2023-02-11T06:52:20.757Z,102419.34
2023-02-11T06:54:47.425Z,102404.69
2023-02-11T06:57:15.465Z,102414.53
2023-02-11T06:59:42.292Z,102415.44
2023-02-11T07:02:09.915Z,102431.38
2023-02-11T07:04:36.598Z,102421.31
2023-02-11T07:07:03.323Z,102432.22
2023-02-11T07:09:30.011Z,102439.25
2023-02-11T07:11:56.695Z,102425.13
2023-02-11T07:14:24.986Z,102432.78
2023-02-11T07:16:51.699Z,102418.81
2023-02-11T07:19:18.439Z,102424.72
2023-02-11T07:21:45.134Z,102430.94
2023-02-11T07:24:12.910Z,102427.19
2023-02-11T07:26:41.119Z,102405.22
2023-02-11T07:29:07.777Z,102419.47
2023-02-11T07:31:36.037Z,102417.25
2023-02-11T07:34:02.924Z,102402.09
2023-02-11T07:36:30.741Z,102413.03
2023-02-11T07:38:57.430Z,102427.72
2023-02-11T07:41:25.712Z,102419.59
2023-02-11T07:43:52.482Z,102421.53
2023-02-11T07:46:21.512Z,102418.25
2023-02-11T07:48:50.043Z,102423.47
2023-02-11T07:51:18.953Z,102400.00
2023-02-11T07:53:46.252Z,102437.56
2023-02-11T07:56:14.607Z,102433.28
2023-02-11T07:58:41.654Z,102418.28
2023-02-11T08:01:10.249Z,102418.72
2023-02-11T08:03:38.101Z,102413.28
2023-02-11T08:06:08.145Z,102419.63
2023-02-11T08:08:34.888Z,102401.28
2023-02-11T08:11:06.595Z,102416.53
2023-02-11T08:13:33.494Z,102409.03
2023-02-11T08:16:00.207Z,102405.44
2023-02-11T08:18:26.873Z,102400.28
2023-02-11T08:20:53.555Z,102414.09
2023-02-11T08:23:21.619Z,102399.84
2023-02-11T08:25:48.303Z,102406.34
2023-02-11T08:28:15.056Z,102401.00
2023-02-11T08:30:41.767Z,102398.66
2023-02-11T08:33:08.467Z,102386.50
2023-02-11T08:35:35.572Z,102384.44
2023-02-11T08:38:02.226Z,102376.13
2023-02-11T08:40:30.295Z,102390.66
2023-02-11T08:42:57.222Z,102386.47
2023-02-11T08:45:23.868Z,102389.63
2023-02-11T08:47:50.538Z,102395.94
2023-02-11T08:50:17.351Z,102393.41
2023-02-11T08:52:44.057Z,102393.69
2023-02-11T08:55:11.154Z,102392.81
2023-02-11T08:57:39.259Z,102381.34
2023-02-11T09:00:07.651Z,102367.91
2023-02-11T09:02:34.432Z,102382.22
2023-02-11T09:05:01.114Z,102390.25
2023-02-11T09:07:28.503Z,102394.72
2023-02-11T09:09:55.164Z,102378.59
2023-02-11T09:12:21.853Z,102398.31
2023-02-11T09:14:49.915Z,102395.69
2023-02-11T09:17:16.574Z,102387.81
2023-02-11T09:19:43.217Z,102391.31
2023-02-11T09:22:09.981Z,102388.66
2023-02-11T09:24:36.730Z,102389.66
2023-02-11T09:27:03.558Z,102392.34
2023-02-11T09:29:30.310Z,102369.16
2023-02-11T09:31:58.460Z,102378.09
2023-02-11T09:34:25.156Z,102388.84
2023-02-11T09:36:51.791Z,102382.69
2023-02-11T09:39:19.350Z,102383.53
2023-02-11T09:42:24.725Z,102380.09
2023-02-11T09:44:52.368Z,102372.97
2023-02-11T09:47:26.839Z,102380.16
2023-02-11T09:50:00.194Z,102371.19
2023-02-11T09:52:36.127Z,102358.66
2023-02-11T09:55:05.237Z,102349.72
2023-02-11T09:57:35.011Z,102339.88
2023-02-11T10:00:15.980Z,102355.94
2023-02-11T10:02:57.255Z,102365.78
2023-02-11T10:05:36.788Z,102362.19
2023-02-11T10:08:11.768Z,102364.03
2023-02-11T10:10:50.449Z,102348.91
2023-02-11T10:13:42.535Z,102340.88
2023-02-11T10:16:21.756Z,102342.72
2023-02-11T10:19:17.492Z,102344.56
2023-02-11T10:21:57.450Z,102343.72
2023-02-11T10:24:25.049Z,102347.28
2023-02-11T10:26:52.381Z,102341.03
2023-02-11T10:29:33.529Z,102340.13
2023-02-11T10:32:04.155Z,102337.50
2023-02-11T10:34:32.320Z,102330.34
2023-02-11T10:36:58.937Z,102327.66
2023-02-11T10:39:27.742Z,102322.28
2023-02-11T10:41:57.768Z,102307.06
2023-02-11T10:44:28.852Z,102303.44
2023-02-11T10:46:57.374Z,102296.28
2023-02-11T10:49:38.862Z,102305.97
2023-02-11T10:52:27.786Z,102289.84
2023-02-11T10:55:00.579Z,102286.31
2023-02-11T10:57:31.230Z,102264.88
2023-02-11T11:00:00.345Z,102262.97
2023-02-11T11:02:29.983Z,102270.91
2023-02-11T11:04:59.164Z,102266.31
2023-02-11T11:07:28.144Z,102253.06
2023-02-11T11:09:58.378Z,102258.38
2023-02-11T11:12:28.528Z,102257.41
2023-02-11T11:14:56.301Z,102250.97
2023-02-11T11:17:22.989Z,102229.59
2023-02-11T11:19:49.597Z,102233.00
2023-02-11T11:22:22.697Z,102240.13
2023-02-11T11:24:50.226Z,102240.94
2023-02-11T11:27:19.414Z,102231.34
2023-02-11T11:29:49.422Z,102234.84
2023-02-11T11:32:20.782Z,102208.13
2023-02-11T11:34:51.306Z,102213.47
2023-02-11T11:37:26.032Z,102211.75
2023-02-11T11:39:57.457Z,102212.69
2023-02-11T11:42:28.475Z,102220.06
2023-02-11T11:44:59.254Z,102223.56
2023-02-11T11:47:33.964Z,102212.88
2023-02-11T11:50:26.851Z,102201.31
2023-02-11T11:53:04.015Z,102198.63
2023-02-11T11:55:35.248Z,102210.22
2023-02-11T11:58:02.074Z,102200.44
2023-02-11T12:00:37.744Z,102199.53
2023-02-11T12:03:29.477Z,102181.66
2023-02-11T12:06:11.635Z,102189.72
2023-02-11T12:08:49.351Z,102174.50
2023-02-11T12:11:26.024Z,102181.72
2023-02-11T12:14:16.930Z,102170.09
2023-02-11T12:16:55.553Z,102167.34
2023-02-11T12:20:01.872Z,102163.72
2023-02-11T12:22:41.207Z,102151.09
2023-02-11T12:25:23.786Z,102139.38
2023-02-11T12:27:56.734Z,102128.50
2023-02-11T12:30:41.758Z,102120.28
2023-02-11T12:33:19.832Z,102112.28
2023-02-11T12:35:56.341Z,102113.84
2023-02-11T12:38:38.974Z,102119.16
2023-02-11T12:41:23.454Z,102110.16
2023-02-11T12:43:50.612Z,102091.13
2023-02-11T12:46:34.388Z,102098.19
2023-02-11T12:49:24.269Z,102091.03
2023-02-11T12:52:13.936Z,102102.63
2023-02-11T12:54:42.842Z,102096.41
2023-02-11T12:57:18.100Z,102088.34
2023-02-11T12:59:51.920Z,102077.84
2023-02-11T13:02:28.145Z,102085.06
2023-02-11T13:05:00.157Z,102086.22
2023-02-11T13:07:31.605Z,102085.28
2023-02-11T13:10:01.799Z,102083.56
2023-02-11T13:12:33.623Z,102055.81
2023-02-11T13:15:06.343Z,102057.63
2023-02-11T13:17:37.982Z,102054.84
2023-02-11T13:20:15.075Z,102069.94
2023-02-11T13:22:46.858Z,102069.19
2023-02-11T13:25:22.482Z,102046.66
2023-02-11T13:27:57.801Z,102033.81
2023-02-11T13:30:28.634Z,102023.69
2023-02-11T13:33:16.315Z,102012.31
2023-02-11T13:35:45.904Z,102009.81
2023-02-11T13:38:18.199Z,102022.28
2023-02-11T13:40:45.699Z,102008.94
2023-02-11T13:43:22.434Z,102004.56
2023-02-11T13:45:50.330Z,102014.13
2023-02-11T13:48:22.793Z,102011.66
2023-02-11T13:50:52.110Z,102006.34
2023-02-11T13:53:20.265Z,101973.31
2023-02-11T13:55:49.692Z,101977.81
2023-02-11T13:58:32.935Z,101975.84
2023-02-11T14:00:59.619Z,101987.16
2023-02-11T14:03:32.309Z,101984.53
2023-02-11T14:06:17.195Z,101974.66
2023-02-11T14:09:00.125Z,101976.22
2023-02-11T14:11:48.902Z,101980.66
2023-02-11T14:14:22.306Z,101970.81
2023-02-11T14:17:29.435Z,101969.19
2023-02-11T14:19:56.194Z,101958.66
2023-02-11T14:22:26.270Z,101968.31
2023-02-11T14:24:56.379Z,101962.31
2023-02-11T14:27:33.444Z,101980.13
2023-02-11T14:30:13.492Z,101954.31
2023-02-11T14:32:58.190Z,101960.47
2023-02-11T14:35:33.479Z,101955.94
2023-02-11T14:38:10.000Z,101964.84
2023-02-11T14:40:46.433Z,101953.34
2023-02-11T14:43:18.692Z,101972.09
2023-02-11T14:45:51.686Z,101974.66
2023-02-11T14:48:20.141Z,101981.84
2023-02-11T14:50:51.297Z,101977.44
2023-02-11T14:53:21.392Z,101976.38
2023-02-11T14:55:49.693Z,101955.00
2023-02-11T14:58:18.517Z,101961.00
2023-02-11T15:00:52.902Z,101960.25
2023-02-11T15:03:34.444Z,101955.75
2023-02-11T15:06:05.593Z,101959.19
2023-02-11T15:08:34.644Z,101954.59
2023-02-11T15:11:03.663Z,101940.38
2023-02-11T15:13:31.813Z,101940.19
2023-02-11T15:16:05.162Z,101929.44
2023-02-11T15:18:35.367Z,101937.28
2023-02-11T15:21:02.197Z,101924.13
2023-02-11T15:23:30.587Z,101928.81
2023-02-11T15:25:57.502Z,101940.44
2023-02-11T15:28:26.831Z,101936.66
2023-02-11T15:30:58.850Z,101924.31
2023-02-11T15:33:27.122Z,101925.38
2023-02-11T15:35:53.768Z,101934.31
2023-02-11T15:38:20.406Z,101929.06
2023-02-11T15:40:56.478Z,101932.66
2023-02-11T15:43:23.221Z,101939.94
2023-02-11T15:45:57.540Z,101937.25
2023-02-11T15:48:27.851Z,101936.41
2023-02-11T15:50:58.699Z,101935.53
2023-02-11T15:53:29.949Z,101932.03
2023-02-11T15:56:07.573Z,101925.72
2023-02-11T15:58:37.084Z,101931.03
2023-02-11T16:01:04.410Z,101923.84
2023-02-11T16:03:31.323Z,101920.28
2023-02-11T16:06:16.521Z,101919.53
2023-02-11T16:08:55.564Z,101925.06
2023-02-11T16:11:26.159Z,101936.69
2023-02-11T16:13:52.809Z,101934.09
2023-02-11T16:16:21.849Z,101942.94
2023-02-11T16:19:03.326Z,101951.94
2023-02-11T16:21:35.857Z,101963.03
2023-02-11T16:24:02.817Z,101965.72
2023-02-11T16:26:33.933Z,101955.88
2023-02-11T16:29:10.473Z,101970.94
2023-02-11T16:31:40.054Z,101964.78
2023-02-11T16:34:14.035Z,101961.19
2023-02-11T16:36:42.538Z,101942.31
2023-02-11T16:39:10.311Z,101947.69
2023-02-11T16:41:37.019Z,101946.06
2023-02-11T16:44:03.812Z,101937.16
2023-02-11T16:46:31.786Z,101945.34
2023-02-11T16:49:06.175Z,101941.72
2023-02-11T16:51:32.824Z,101950.41
2023-02-11T16:54:00.795Z,101936.13
2023-02-11T16:56:27.465Z,101937.94
2023-02-11T16:58:54.122Z,101927.34
2023-02-11T17:01:20.870Z,101944.41
2023-02-11T17:03:47.990Z,101941.75
2023-02-11T17:06:14.889Z,101927.44
2023-02-11T17:08:41.533Z,101911.53
2023-02-11T17:11:09.631Z,101920.44
2023-02-11T17:13:36.276Z,101920.50
2023-02-11T17:16:02.993Z,101913.56
2023-02-11T17:18:29.692Z,101917.13
2023-02-11T17:20:56.332Z,101915.31
2023-02-11T17:23:23.025Z,101923.50
2023-02-11T17:25:55.476Z,101936.09
2023-02-11T17:28:23.581Z,101924.63
2023-02-11T17:30:50.308Z,101926.25
2023-02-11T17:33:17.130Z,101924.31
2023-02-11T17:35:43.778Z,101924.13
2023-02-11T17:38:10.436Z,101933.06
2023-02-11T17:40:37.204Z,101913.50
2023-02-11T17:43:04.524Z,101906.38
2023-02-11T17:45:32.721Z,101908.94
2023-02-11T17:47:59.477Z,101917.75
2023-02-11T17:50:29.176Z,101905.44
2023-02-11T17:52:56.700Z,101914.44
2023-02-11T17:55:23.360Z,101910.09
2023-02-11T17:57:50.021Z,101922.50
2023-02-11T18:00:17.340Z,101916.97
2023-02-11T18:02:45.388Z,101901.75
2023-02-11T18:05:12.130Z,101916.19
2023-02-11T18:07:38.802Z,101913.50
2023-02-11T18:10:06.614Z,101905.53
2023-02-11T18:12:33.264Z,101895.69
2023-02-11T18:14:59.970Z,101898.63
2023-02-11T18:17:26.639Z,101904.72
2023-02-11T18:19:57.557Z,101890.31
2023-02-11T18:22:25.015Z,101880.50
2023-02-11T18:24:52.379Z,101887.69
2023-02-11T18:27:19.168Z,101903.78
2023-02-11T18:29:45.809Z,101905.69
2023-02-11T18:32:12.703Z,101908.34
2023-02-11T18:34:40.087Z,101905.59
2023-02-11T18:37:08.378Z,101908.13
2023-02-11T18:39:35.060Z,101915.44
2023-02-11T18:42:01.708Z,101914.63
2023-02-11T18:44:28.557Z,101919.09
2023-02-11T18:46:55.257Z,101915.53
2023-02-11T18:49:21.906Z,101919.94
2023-02-11T18:51:48.658Z,101919.13
2023-02-11T18:54:16.717Z,101921.72
2023-02-11T18:56:43.433Z,101907.53
2023-02-11T18:59:10.066Z,101917.34
2023-02-11T19:01:36.799Z,101907.56
2023-02-11T19:04:04.841Z,101912.91
2023-02-11T19:06:33.911Z,101906.22
2023-02-11T19:09:02.383Z,101910.66
2023-02-11T19:11:32.236Z,101916.00
2023-02-11T19:13:58.811Z,101914.19
2023-02-11T19:16:25.459Z,101921.09
2023-02-11T19:18:52.166Z,101926.56
2023-02-11T19:21:18.839Z,101914.78
2023-02-11T19:23:45.522Z,101921.84
2023-02-11T19:26:12.168Z,101915.59
2023-02-11T19:28:40.294Z,101926.25
2023-02-11T19:31:08.635Z,101910.16
2023-02-11T19:33:35.655Z,101920.97
2023-02-11T19:36:04.349Z,101931.00
2023-02-11T19:38:31.124Z,101923.00
2023-02-11T19:40:58.251Z,101936.34
2023-02-11T19:43:25.115Z,101943.50
2023-02-11T19:45:53.540Z,101944.22
2023-02-11T19:48:20.357Z,101943.44
2023-02-11T19:50:47.132Z,101935.28
2023-02-11T19:53:13.737Z,101931.69
2023-02-11T19:55:40.428Z,101924.69
2023-02-11T19:58:07.166Z,101923.56
2023-02-11T20:00:33.806Z,101927.19
2023-02-11T20:03:01.935Z,101919.25
2023-02-11T20:05:28.685Z,101916.53
2023-02-11T20:07:55.310Z,101898.78
2023-02-11T20:10:23.252Z,101917.59
2023-02-11T20:12:49.901Z,101916.72
2023-02-11T20:15:16.558Z,101909.59
2023-02-11T20:17:43.250Z,101914.97
2023-02-11T20:20:11.953Z,101920.31
2023-02-11T20:22:38.562Z,101919.50
2023-02-11T20:25:06.118Z,101913.34
2023-02-11T20:27:32.769Z,101910.47
2023-02-11T20:29:59.400Z,101895.34
2023-02-11T20:32:26.072Z,101897.91
2023-02-11T20:34:52.737Z,101892.59
2023-02-11T20:37:20.798Z,101887.41
2023-02-11T20:39:47.424Z,101894.47
2023-02-11T20:42:14.324Z,101889.09
2023-02-11T20:44:41.279Z,101883.69
2023-02-11T20:47:07.944Z,101870.34
2023-02-11T20:49:34.656Z,101894.47
2023-02-11T20:52:01.284Z,101891.78
2023-02-11T20:54:29.400Z,101890.97
2023-02-11T20:56:56.192Z,101896.38
2023-02-11T20:59:23.037Z,101899.06
2023-02-11T21:01:51.472Z,101889.25
2023-02-11T21:04:20.256Z,101892.78
2023-02-11T21:06:49.425Z,101883.94
2023-02-11T21:09:17.813Z,101885.72
2023-02-11T21:11:46.347Z,101882.16
2023-02-11T21:14:13.390Z,101871.44
2023-02-11T21:16:40.416Z,101880.38
2023-02-11T21:19:07.711Z,101881.22
2023-02-11T21:21:35.456Z,101873.13
2023-02-11T21:24:02.130Z,101886.53
2023-02-11T21:26:29.024Z,101876.75
2023-02-11T21:28:57.183Z,101876.75
2023-02-11T21:31:29.628Z,101885.78
2023-02-11T21:33:57.007Z,101882.16
2023-02-11T21:36:23.902Z,101880.47
2023-02-11T21:38:50.553Z,101872.47
2023-02-11T21:41:17.713Z,101886.72
2023-02-11T21:43:44.677Z,101887.63
2023-02-11T21:46:14.839Z,101879.56
2023-02-11T21:48:41.960Z,101892.00
2023-02-11T21:51:11.236Z,101887.53
2023-02-11T21:53:37.877Z,101891.88
2023-02-11T21:56:07.172Z,101892.81
2023-02-11T21:58:33.818Z,101891.91
2023-02-11T22:01:00.599Z,101889.28
2023-02-11T22:03:28.673Z,101894.56
2023-02-11T22:05:55.763Z,101890.97
2023-02-11T22:08:22.590Z,101893.69
2023-02-11T22:10:49.268Z,101885.66
2023-02-11T22:13:15.948Z,101901.75
2023-02-11T22:15:42.553Z,101904.31
2023-02-11T22:18:09.241Z,101890.03
2023-02-11T22:20:37.293Z,101901.63
2023-02-11T22:23:04.013Z,101902.63
2023-02-11T22:25:30.628Z,101900.78
2023-02-11T22:27:57.330Z,101903.59
2023-02-11T22:30:23.998Z,101909.91
2023-02-11T22:32:50.650Z,101911.72
2023-02-11T22:35:17.347Z,101904.59
2023-02-11T22:37:45.360Z,101913.59
2023-02-11T22:40:13.315Z,101905.53
2023-02-11T22:42:40.005Z,101907.19
2023-02-11T22:45:07.695Z,101916.97
2023-02-11T22:47:34.324Z,101910.84
2023-02-11T22:50:01.004Z,101924.22
2023-02-11T22:52:27.647Z,101918.94
2023-02-11T22:54:55.686Z,101935.00
2023-02-11T22:57:22.341Z,101933.28
2023-02-11T22:59:49.029Z,101936.00
2023-02-11T23:02:15.773Z,101934.22
2023-02-11T23:04:42.634Z,101925.31
2023-02-11T23:07:09.310Z,101944.00
2023-02-11T23:09:35.981Z,101931.56
2023-02-11T23:12:04.537Z,101941.38
2023-02-11T23:14:31.462Z,101951.16
2023-02-11T23:16:58.204Z,101947.59
2023-02-11T23:19:25.069Z,101939.59
2023-02-11T23:21:52.022Z,101938.72
2023-02-11T23:24:18.637Z,101928.06
2023-02-11T23:26:45.513Z,101936.97
2023-02-11T23:29:13.999Z,101954.78
2023-02-11T23:31:43.146Z,101945.00
2023-02-11T23:34:10.182Z,101961.03
2023-02-11T23:36:37.458Z,101955.72
2023-02-11T23:39:04.778Z,101969.06
2023-02-11T23:41:31.556Z,101972.66
2023-02-11T23:43:58.359Z,101961.97
2023-02-11T23:46:27.582Z,101975.34
2023-02-11T23:48:54.326Z,101970.88
2023-02-11T23:51:21.182Z,101965.53
2023-02-11T23:53:48.144Z,101971.78
2023-02-11T23:56:18.731Z,101973.56
2023-02-11T23:58:48.110Z,101961.06
